TimeCDT,TemperatureF,Dew PointF,Humidity,Sea Level PressureIn,VisibilityMPH,Wind Direction,Wind SpeedMPH,Gust SpeedMPH,PrecipitationIn,Events,Conditions,WindDirDegrees,DateUTC
12:54 AM,66.0,57.0,73,30.01,10.0,SE,5.8,-,N/A,,Clear,140,2013-07-06 05:54:00
1:54 AM,64.9,57.9,78,30.01,10.0,SSE,6.9,-,N/A,,Clear,160,2013-07-06 06:54:00
2:54 AM,64.0,59.0,84,30.00,10.0,SSE,8.1,-,N/A,,Clear,150,2013-07-06 07:54:00
3:54 AM,64.9,60.1,84,29.99,10.0,SSE,6.9,-,N/A,,Clear,150,2013-07-06 08:54:00
4:54 AM,64.9,61.0,87,29.99,10.0,SE,8.1,-,N/A,,Clear,130,2013-07-06 09:54:00
5:54 AM,64.0,61.0,90,30.01,7.0,ESE,8.1,-,N/A,,Clear,120,2013-07-06 10:54:00
6:54 AM,64.9,62.1,90,30.01,6.0,SE,6.9,-,N/A,,Clear,130,2013-07-06 11:54:00
7:54 AM,70.0,64.0,81,30.02,9.0,SSE,8.1,-,N/A,,Clear,160,2013-07-06 12:54:00
8:54 AM,73.9,66.9,79,30.02,10.0,South,10.4,-,N/A,,Clear,180,2013-07-06 13:54:00
9:54 AM,78.1,66.9,68,30.01,10.0,South,9.2,-,N/A,,Clear,180,2013-07-06 14:54:00
10:54 AM,80.1,66.9,64,30.01,10.0,SSW,10.4,-,N/A,,Clear,210,2013-07-06 15:54:00
11:54 AM,82.9,68.0,60,30.01,10.0,South,6.9,-,N/A,,Clear,180,2013-07-06 16:54:00
12:54 PM,84.9,66.0,53,29.99,10.0,SSW,8.1,-,N/A,,Clear,210,2013-07-06 17:54:00
1:54 PM,87.1,66.9,51,29.97,10.0,SE,6.9,-,N/A,,Clear,130,2013-07-06 18:54:00
2:54 PM,87.1,64.9,48,29.95,10.0,South,8.1,-,N/A,,Partly Cloudy,170,2013-07-06 19:54:00
3:54 PM,88.0,64.9,46,29.94,10.0,South,5.8,-,N/A,,Mostly Cloudy,190,2013-07-06 20:54:00
4:54 PM,88.0,64.9,46,29.94,10.0,South,6.9,-,N/A,,Partly Cloudy,190,2013-07-06 21:54:00
5:54 PM,87.1,63.0,44,29.93,10.0,SSE,10.4,-,N/A,,Clear,150,2013-07-06 22:54:00
6:54 PM,81.0,64.0,56,29.95,10.0,South,15.0,-,N/A,,Clear,170,2013-07-06 23:54:00
7:54 PM,77.0,63.0,62,29.96,10.0,SE,9.2,-,N/A,,Clear,140,2013-07-07 00:54:00
8:54 PM,75.0,62.1,64,29.96,10.0,SE,9.2,-,N/A,,Clear,130,2013-07-07 01:54:00
9:54 PM,73.9,61.0,64,29.97,10.0,SE,8.1,-,N/A,,Partly Cloudy,140,2013-07-07 02:54:00
10:54 PM,72.0,62.1,71,29.98,10.0,SE,6.9,-,N/A,,Clear,140,2013-07-07 03:54:00
11:54 PM,70.0,62.1,76,29.99,10.0,SSE,6.9,-,N/A,,Clear,150,2013-07-07 04:54:00